createdAt,value
2023-01-03T00:00:54.246Z,97031.16
2023-01-03T00:03:21.258Z,97035.75
2023-01-03T00:05:49.106Z,97042.53
2023-01-03T00:08:16.171Z,97037.16
2023-01-03T00:10:43.436Z,97038.59
2023-01-03T00:13:10.521Z,97045.81
2023-01-03T00:15:38.889Z,97053.06
2023-01-03T00:18:06.101Z,97059.25
2023-01-03T00:20:34.641Z,97051.06
2023-01-03T00:23:02.459Z,97048.13
2023-01-03T00:25:29.886Z,97047.88
2023-01-03T00:27:57.134Z,97049.50
2023-01-03T00:30:24.422Z,97045.00
2023-01-03T00:32:51.494Z,97037.59
2023-01-03T00:35:18.429Z,97040.56
2023-01-03T00:37:45.366Z,97044.16
2023-01-03T00:40:12.471Z,97045.59
2023-01-03T00:42:58.596Z,97041.59
2023-01-03T00:45:26.155Z,97038.47
2023-01-03T00:47:53.761Z,97046.69
2023-01-03T00:50:20.635Z,97047.94
2023-01-03T00:52:47.630Z,97053.31
2023-01-03T00:55:14.661Z,97057.75
2023-01-03T00:57:41.693Z,97053.50
2023-01-03T01:00:09.033Z,97054.25
2023-01-03T01:02:36.134Z,97054.81
2023-01-03T01:05:03.343Z,97060.00
2023-01-03T01:07:30.315Z,97063.38
2023-01-03T01:09:57.358Z,97060.78
2023-01-03T01:12:24.224Z,97060.00
2023-01-03T01:14:51.113Z,97060.16
2023-01-03T01:17:22.561Z,97053.19
2023-01-03T01:19:50.250Z,97059.38
2023-01-03T01:22:17.206Z,97066.16
2023-01-03T01:24:45.076Z,97064.56
2023-01-03T01:27:12.181Z,97063.56
2023-01-03T01:29:39.560Z,97068.13
2023-01-03T01:32:07.317Z,97070.09
2023-01-03T01:34:34.561Z,97075.88
2023-01-03T01:37:01.621Z,97072.47
2023-01-03T01:39:29.537Z,97073.44
2023-01-03T01:42:30.468Z,97069.97
2023-01-03T01:45:15.267Z,97076.94
2023-01-03T01:47:57.396Z,97071.41
2023-01-03T01:50:46.995Z,97076.59
2023-01-03T01:53:20.918Z,97074.81
2023-01-03T01:55:50.739Z,97078.75
2023-01-03T01:58:18.432Z,97081.44
2023-01-03T02:00:45.736Z,97079.22
2023-01-03T02:03:13.322Z,97075.47
2023-01-03T02:05:46.373Z,97070.47
2023-01-03T02:08:13.713Z,97085.75
2023-01-03T02:11:01.695Z,97091.84
2023-01-03T02:13:46.473Z,97091.84
2023-01-03T02:16:54.514Z,97107.47
2023-01-03T02:19:53.838Z,97102.03
2023-01-03T02:22:20.842Z,97105.59
2023-01-03T02:25:12.638Z,97105.97
2023-01-03T02:28:18.146Z,97114.09
2023-01-03T02:31:08.842Z,97115.63
2023-01-03T02:33:46.144Z,97109.97
2023-01-03T02:36:31.319Z,97119.91
2023-01-03T02:39:40.882Z,97120.63
2023-01-03T02:42:38.313Z,97117.94
2023-01-03T02:45:21.130Z,97125.78
2023-01-03T02:47:57.425Z,97124.50
2023-01-03T02:50:28.474Z,97123.88
2023-01-03T02:53:01.754Z,97122.44
2023-01-03T02:55:31.816Z,97121.97
2023-01-03T02:58:04.933Z,97127.16
2023-01-03T03:00:34.475Z,97125.56
2023-01-03T03:03:07.038Z,97129.66
2023-01-03T03:05:53.715Z,97137.25
2023-01-03T03:08:20.833Z,97129.81
2023-01-03T03:11:06.723Z,97131.44
2023-01-03T03:13:44.158Z,97140.38
2023-01-03T03:16:44.014Z,97138.13
2023-01-03T03:19:38.545Z,97143.19
2023-01-03T03:22:32.494Z,97139.69
2023-01-03T03:25:04.839Z,97140.22
2023-01-03T03:27:52.013Z,97139.75
2023-01-03T03:30:22.614Z,97145.91
2023-01-03T03:32:54.374Z,97140.28
2023-01-03T03:35:24.734Z,97138.34
2023-01-03T03:37:57.207Z,97137.91
2023-01-03T03:40:47.891Z,97126.56
2023-01-03T03:43:56.305Z,97141.47
2023-01-03T03:46:32.092Z,97135.31
2023-01-03T03:49:25.036Z,97141.56
2023-01-03T03:51:56.142Z,97135.44
2023-01-03T03:54:25.602Z,97139.31
2023-01-03T03:57:02.154Z,97135.53
2023-01-03T03:59:32.074Z,97144.28
2023-01-03T04:02:03.575Z,97152.25
2023-01-03T04:04:37.017Z,97151.44
2023-01-03T04:07:04.316Z,97155.97
2023-01-03T04:09:31.775Z,97155.97
2023-01-03T04:11:58.789Z,97159.75
2023-01-03T04:14:25.819Z,97156.34
2023-01-03T04:16:52.928Z,97148.44
2023-01-03T04:19:20.055Z,97161.53
2023-01-03T04:21:47.076Z,97156.84
2023-01-03T04:24:14.070Z,97152.09
2023-01-03T04:26:41.165Z,97155.97
2023-01-03T04:29:08.162Z,97145.91
2023-01-03T04:31:35.322Z,97146.53
2023-01-03T04:34:02.600Z,97159.13
2023-01-03T04:36:29.717Z,97150.38
2023-01-03T04:38:56.820Z,97166.56
2023-01-03T04:41:24.175Z,97158.47
2023-01-03T04:44:02.196Z,97164.25
2023-01-03T04:46:30.403Z,97167.50
2023-01-03T04:48:57.536Z,97168.31
2023-01-03T04:51:24.775Z,97168.47
2023-01-03T04:53:51.792Z,97163.94
2023-01-03T04:56:23.439Z,97171.53
2023-01-03T04:58:50.475Z,97167.50
2023-01-03T05:01:17.682Z,97168.13
2023-01-03T05:03:44.809Z,97172.97
2023-01-03T05:06:12.625Z,97174.25
2023-01-03T05:08:40.476Z,97181.47
2023-01-03T05:11:07.981Z,97174.19
2023-01-03T05:13:35.088Z,97181.59
2023-01-03T05:16:10.299Z,97175.53
2023-01-03T05:18:38.209Z,97182.63
2023-01-03T05:21:31.291Z,97190.69
2023-01-03T05:24:17.362Z,97192.59
2023-01-03T05:26:45.041Z,97203.22
2023-01-03T05:29:13.978Z,97210.84
2023-01-03T05:31:41.229Z,97207.44
2023-01-03T05:34:08.299Z,97216.84
2023-01-03T05:36:35.345Z,97211.19
2023-01-03T05:39:02.481Z,97214.31
2023-01-03T05:41:48.421Z,97218.69
2023-01-03T05:44:15.563Z,97227.56
2023-01-03T05:46:42.525Z,97223.16
2023-01-03T05:49:09.682Z,97225.59
2023-01-03T05:51:36.763Z,97229.00
2023-01-03T05:54:03.940Z,97231.25
2023-01-03T05:56:32.419Z,97235.63
2023-01-03T05:59:00.283Z,97236.44
2023-01-03T06:01:28.795Z,97240.47
2023-01-03T06:03:56.092Z,97237.06
2023-01-03T06:06:23.266Z,97242.72
2023-01-03T06:08:50.459Z,97240.75
2023-01-03T06:11:18.016Z,97246.38
2023-01-03T06:13:45.560Z,97242.28
2023-01-03T06:16:37.214Z,97244.28
2023-01-03T06:19:06.089Z,97248.75
2023-01-03T06:21:33.266Z,97255.19
2023-01-03T06:24:00.460Z,97252.31
2023-01-03T06:26:27.600Z,97253.31
2023-01-03T06:28:54.622Z,97253.13
2023-01-03T06:31:21.721Z,97257.16
2023-01-03T06:33:49.145Z,97263.13
2023-01-03T06:36:19.020Z,97256.84
2023-01-03T06:38:46.215Z,97259.25
2023-01-03T06:41:14.540Z,97269.63
2023-01-03T06:43:42.241Z,97271.53
2023-01-03T06:46:30.937Z,97274.75
2023-01-03T06:49:17.513Z,97277.69
2023-01-03T06:52:05.260Z,97282.81
2023-01-03T06:54:35.944Z,97291.69
2023-01-03T06:57:04.544Z,97293.13
2023-01-03T06:59:31.846Z,97290.81
2023-01-03T07:01:59.007Z,97300.84
2023-01-03T07:04:26.697Z,97299.31
2023-01-03T07:06:54.261Z,97298.63
2023-01-03T07:09:21.493Z,97296.50
2023-01-03T07:11:48.659Z,97304.19
2023-01-03T07:14:15.791Z,97310.28
2023-01-03T07:16:47.221Z,97299.53
2023-01-03T07:19:17.043Z,97302.75
2023-01-03T07:21:44.860Z,97301.78
2023-01-03T07:24:14.877Z,97298.47
2023-01-03T07:26:41.879Z,97309.13
2023-01-03T07:29:11.224Z,97310.56
2023-01-03T07:31:41.746Z,97317.19
2023-01-03T07:34:09.777Z,97311.81
2023-01-03T07:36:37.210Z,97312.25
2023-01-03T07:39:04.469Z,97317.72
2023-01-03T07:41:50.234Z,97325.34
2023-01-03T07:44:18.843Z,97321.59
2023-01-03T07:46:45.978Z,97326.59
2023-01-03T07:49:13.084Z,97327.22
2023-01-03T07:51:40.400Z,97325.88
2023-01-03T07:54:08.023Z,97323.72
2023-01-03T07:56:35.559Z,97323.09
2023-01-03T07:59:02.834Z,97330.28
2023-01-03T08:01:30.867Z,97337.09
2023-01-03T08:03:58.438Z,97339.94
2023-01-03T08:06:26.081Z,97337.09
2023-01-03T08:09:12.459Z,97342.63
2023-01-03T08:11:58.277Z,97355.00
2023-01-03T08:14:27.060Z,97353.66
2023-01-03T08:16:55.705Z,97356.09
2023-01-03T08:19:23.542Z,97352.78
2023-01-03T08:21:50.789Z,97355.06
2023-01-03T08:24:17.900Z,97366.09
2023-01-03T08:26:44.932Z,97367.00
2023-01-03T08:29:12.125Z,97355.63
2023-01-03T08:31:45.745Z,97361.88
2023-01-03T08:34:19.603Z,97362.34
2023-01-03T08:36:57.805Z,97368.94
2023-01-03T08:39:29.499Z,97368.03
2023-01-03T08:42:01.545Z,97372.16
2023-01-03T08:44:28.591Z,97370.00
2023-01-03T08:46:58.570Z,97370.25
2023-01-03T08:49:26.306Z,97372.22
2023-01-03T08:51:53.368Z,97375.34
2023-01-03T08:54:20.419Z,97365.44
2023-01-03T08:56:47.440Z,97367.94
2023-01-03T08:59:14.460Z,97372.84
2023-01-03T09:01:41.701Z,97368.84
2023-01-03T09:04:09.222Z,97380.53
2023-01-03T09:06:36.531Z,97375.94
2023-01-03T09:09:07.882Z,97370.34
2023-01-03T09:11:35.007Z,97384.34
2023-01-03T09:14:02.056Z,97381.63
2023-01-03T09:16:29.114Z,97383.63
2023-01-03T09:18:56.286Z,97381.00
2023-01-03T09:21:23.415Z,97377.97
2023-01-03T09:23:50.434Z,97384.25
2023-01-03T09:26:17.541Z,97381.81
2023-01-03T09:28:44.643Z,97386.09
2023-01-03T09:31:11.722Z,97378.91
2023-01-03T09:33:39.147Z,97386.53
2023-01-03T09:36:06.564Z,97386.53
2023-01-03T09:38:33.974Z,97384.50
2023-01-03T09:41:07.955Z,97386.03
2023-01-03T09:43:42.676Z,97389.63
2023-01-03T09:46:22.108Z,97384.81
2023-01-03T09:48:50.800Z,97381.56
2023-01-03T09:51:39.314Z,97386.97
2023-01-03T09:54:30.709Z,97383.56
2023-01-03T09:57:16.561Z,97394.19
2023-01-03T10:00:02.119Z,97384.56
2023-01-03T10:03:26.843Z,97380.06
2023-01-03T10:06:10.964Z,97373.53
2023-01-03T10:08:56.783Z,97369.47
2023-01-03T10:11:42.387Z,97368.31
2023-01-03T10:14:28.107Z,97368.31
2023-01-03T10:17:24.298Z,97364.34
2023-01-03T10:20:14.058Z,97363.59
2023-01-03T10:22:41.697Z,97371.66
2023-01-03T10:25:12.961Z,97366.88
2023-01-03T10:27:47.273Z,97365.69
2023-01-03T10:30:20.242Z,97351.69
2023-01-03T10:32:53.379Z,97358.53
2023-01-03T10:35:32.470Z,97352.50
2023-01-03T10:38:00.701Z,97350.13
2023-01-03T10:40:42.110Z,97341.31
2023-01-03T10:43:28.198Z,97340.38
2023-01-03T10:46:01.649Z,97335.75
2023-01-03T10:49:26.153Z,97342.38
2023-01-03T10:52:17.642Z,97333.59
2023-01-03T10:54:44.670Z,97327.78
2023-01-03T10:57:44.058Z,97327.06
2023-01-03T11:00:33.223Z,97327.66
2023-01-03T11:03:10.046Z,97325.31
2023-01-03T11:05:38.754Z,97328.88
2023-01-03T11:08:15.215Z,97324.69
2023-01-03T11:11:01.052Z,97328.13
2023-01-03T11:13:41.138Z,97317.09
2023-01-03T11:16:18.287Z,97317.31
2023-01-03T11:19:00.644Z,97317.13
2023-01-03T11:21:34.718Z,97310.34
2023-01-03T11:24:32.480Z,97304.13
2023-01-03T11:27:28.908Z,97301.50
2023-01-03T11:29:59.356Z,97305.53
2023-01-03T11:32:47.887Z,97292.91
2023-01-03T11:35:58.317Z,97295.94
2023-01-03T11:38:50.878Z,97286.72
2023-01-03T11:41:26.546Z,97287.34
2023-01-03T11:44:27.516Z,97286.97
2023-01-03T11:47:12.097Z,97297.00
2023-01-03T11:49:59.337Z,97293.38
2023-01-03T11:52:56.704Z,97286.16
2023-01-03T11:55:48.420Z,97275.34
2023-01-03T11:58:21.380Z,97278.16
2023-01-03T12:13:53.618Z,97284.47
2023-01-03T12:16:31.650Z,97292.06
2023-01-03T12:19:12.671Z,97292.69
2023-01-03T12:21:54.039Z,97289.13
2023-01-03T12:24:39.596Z,97293.41
2023-01-03T12:27:16.778Z,97299.91
2023-01-03T12:29:55.939Z,97299.13
2023-01-03T12:32:44.040Z,97294.59
2023-01-03T12:35:20.204Z,97301.41
2023-01-03T12:37:49.943Z,97299.84
2023-01-03T12:40:37.080Z,97296.25
2023-01-03T12:43:16.960Z,97292.88
2023-01-03T12:46:13.829Z,97298.69
2023-01-03T12:49:07.737Z,97297.31
2023-01-03T12:51:36.274Z,97306.97
2023-01-03T12:54:12.360Z,97300.94
2023-01-03T12:56:53.921Z,97308.34
2023-01-03T12:59:30.002Z,97306.38
2023-01-03T13:02:26.985Z,97305.56
2023-01-03T13:05:02.702Z,97314.81
2023-01-03T13:07:34.151Z,97316.41
2023-01-03T13:10:07.293Z,97318.81
2023-01-03T13:12:35.937Z,97321.06
2023-01-03T13:15:03.038Z,97315.84
2023-01-03T13:17:32.679Z,97319.88
2023-01-03T13:20:38.219Z,97318.03
2023-01-03T13:23:33.121Z,97319.06
2023-01-03T13:26:06.257Z,97325.25
2023-01-03T13:28:38.011Z,97317.25
2023-01-03T13:31:20.011Z,97319.88
2023-01-03T13:33:56.284Z,97324.69
2023-01-03T13:36:24.736Z,97316.88
2023-01-03T13:38:52.237Z,97319.28
2023-01-03T13:41:39.178Z,97315.06
2023-01-03T13:44:16.793Z,97309.03
2023-01-03T13:46:44.323Z,97306.06
2023-01-03T13:49:19.797Z,97306.66
2023-01-03T13:51:51.859Z,97297.25
2023-01-03T13:54:18.861Z,97297.25
2023-01-03T13:56:45.825Z,97298.84
2023-01-03T13:59:12.840Z,97298.84
2023-01-03T14:01:49.098Z,97299.44
2023-01-03T14:04:40.726Z,97303.84
2023-01-03T14:07:25.976Z,97308.06
2023-01-03T14:10:14.171Z,97314.47
2023-01-03T14:13:00.939Z,97321.09
2023-01-03T14:15:31.729Z,97326.91
2023-01-03T14:18:07.442Z,97324.91
2023-01-03T14:20:37.241Z,97318.66
2023-01-03T14:26:17.403Z,97322.03
2023-01-03T14:28:52.979Z,97320.25
2023-01-03T14:31:26.949Z,97316.47
2023-01-03T14:34:00.904Z,97316.06
2023-01-03T14:36:28.889Z,97320.09
2023-01-03T14:38:58.471Z,97322.50
2023-01-03T14:41:34.565Z,97325.34
2023-01-03T14:44:04.700Z,97332.53
2023-01-03T14:46:32.614Z,97334.59
2023-01-03T14:49:03.626Z,97342.81
2023-01-03T14:51:34.814Z,97346.22
2023-01-03T14:54:03.702Z,97347.44
2023-01-03T14:56:31.639Z,97350.66
2023-01-03T14:58:59.181Z,97350.03
2023-01-03T15:01:28.928Z,97350.25
2023-01-03T15:03:56.646Z,97354.28
2023-01-03T15:06:31.962Z,97358.72
2023-01-03T15:09:01.787Z,97367.78
2023-01-03T15:11:33.908Z,97371.19
2023-01-03T15:14:05.430Z,97381.22
2023-01-03T15:16:32.836Z,97378.25
2023-01-03T15:19:12.761Z,97389.25
2023-01-03T15:21:41.466Z,97390.44
2023-01-03T15:24:20.499Z,97392.06
2023-01-03T15:26:49.845Z,97395.84
2023-01-03T15:29:24.070Z,97396.47
2023-01-03T15:31:54.105Z,97408.13
2023-01-03T15:34:23.958Z,97407.13
2023-01-03T15:36:54.906Z,97412.34
2023-01-03T15:39:24.515Z,97410.16
2023-01-03T15:45:18.588Z,97422.59
2023-01-03T15:47:46.281Z,97427.00
2023-01-03T15:50:19.081Z,97426.00
2023-01-03T15:52:47.604Z,97432.22
2023-01-03T15:55:16.240Z,97431.41
2023-01-03T15:57:50.990Z,97432.22
2023-01-03T16:00:21.463Z,97435.63
2023-01-03T16:02:49.293Z,97436.63
2023-01-03T16:05:22.068Z,97433.22
2023-01-03T16:07:50.776Z,97435.22
2023-01-03T16:10:18.036Z,97437.84
2023-01-03T16:12:45.459Z,97438.03
2023-01-03T16:15:21.552Z,97438.38
2023-01-03T16:17:50.799Z,97434.97
2023-01-03T16:20:19.151Z,97437.56
2023-01-03T16:22:55.878Z,97437.56
2023-01-03T16:25:27.275Z,97436.78
2023-01-03T16:27:54.652Z,97439.38
2023-01-03T16:30:21.961Z,97445.22
2023-01-03T16:32:49.861Z,97443.59
2023-01-03T16:35:19.263Z,97443.41
2023-01-03T16:37:46.699Z,97441.81
2023-01-03T16:40:19.337Z,97448.81
2023-01-03T16:42:46.619Z,97447.78
2023-01-03T16:45:13.702Z,97445.41
2023-01-03T16:47:42.945Z,97452.25
2023-01-03T16:50:20.352Z,97446.41
2023-01-03T16:52:52.710Z,97450.63
2023-01-03T16:55:33.321Z,97450.44
2023-01-03T16:58:00.688Z,97453.66
2023-01-03T17:00:30.056Z,97452.69
2023-01-03T17:03:00.369Z,97456.28
2023-01-03T17:05:29.582Z,97458.69
2023-01-03T17:08:07.123Z,97460.50
2023-01-03T17:10:40.328Z,97460.28
2023-01-03T17:13:12.787Z,97460.28
2023-01-03T17:15:41.570Z,97456.09
2023-01-03T17:18:19.407Z,97459.28
2023-01-03T17:20:52.439Z,97462.53
2023-01-03T17:23:19.972Z,97464.50
2023-01-03T17:25:47.103Z,97464.50
2023-01-03T17:28:14.350Z,97474.13
2023-01-03T17:30:43.697Z,97482.78
2023-01-03T17:33:15.763Z,97484.38
2023-01-03T17:35:46.118Z,97483.56
2023-01-03T17:38:25.716Z,97494.81
2023-01-03T17:40:55.538Z,97495.63
2023-01-03T17:43:24.673Z,97496.81
2023-01-03T17:46:14.996Z,97488.97
2023-01-03T17:49:06.419Z,97492.63
2023-01-03T17:51:33.551Z,97493.59
2023-01-03T17:54:00.600Z,97494.59
2023-01-03T17:56:28.363Z,97503.81
2023-01-03T17:58:56.593Z,97504.03
2023-01-03T18:01:24.369Z,97504.22
2023-01-03T18:03:51.640Z,97511.06
2023-01-03T18:06:23.402Z,97507.81
2023-01-03T18:08:52.439Z,97505.03
2023-01-03T18:11:22.337Z,97505.84
2023-01-03T18:13:50.127Z,97507.63
2023-01-03T18:16:22.364Z,97505.84
2023-01-03T18:18:49.697Z,97515.28
2023-01-03T18:21:21.720Z,97517.69
2023-01-03T18:24:01.241Z,97512.09
2023-01-03T18:26:36.508Z,97515.50
2023-01-03T18:29:05.191Z,97514.53
2023-01-03T18:31:32.418Z,97497.63
2023-01-03T18:34:04.641Z,97510.66
2023-01-03T18:36:49.729Z,97505.22
2023-01-03T18:39:28.524Z,97508.63
2023-01-03T18:42:16.640Z,97507.81
2023-01-03T18:44:43.581Z,97509.63
2023-01-03T18:47:13.521Z,97510.00
2023-01-03T18:49:40.459Z,97512.00
2023-01-03T18:52:14.700Z,97522.44
2023-01-03T18:54:41.761Z,97524.41
2023-01-03T18:57:12.500Z,97521.81
2023-01-03T18:59:39.620Z,97524.78
2023-01-03T19:02:15.181Z,97522.97
2023-01-03T19:04:47.627Z,97536.84
2023-01-03T19:07:30.624Z,97530.63
2023-01-03T19:09:59.101Z,97532.25
2023-01-03T19:12:26.459Z,97531.63
2023-01-03T19:14:53.514Z,97535.84
2023-01-03T19:17:21.220Z,97545.28
2023-01-03T19:19:48.281Z,97539.69
2023-01-03T19:22:33.679Z,97548.13
2023-01-03T19:25:05.164Z,97550.72
2023-01-03T19:27:45.388Z,97551.72
2023-01-03T19:30:19.861Z,97551.13
2023-01-03T19:32:51.568Z,97556.53
2023-01-03T19:35:18.842Z,97553.91
2023-01-03T19:37:45.817Z,97553.47
2023-01-03T19:40:25.045Z,97537.22
2023-01-03T19:42:53.719Z,97544.25
2023-01-03T19:45:29.379Z,97535.44
2023-01-03T19:47:57.937Z,97540.44
2023-01-03T19:50:28.559Z,97544.88
2023-01-03T19:52:55.942Z,97533.63
2023-01-03T19:55:27.802Z,97535.78
2023-01-03T19:57:55.258Z,97542.00
2023-01-03T20:00:25.724Z,97544.78
2023-01-03T20:02:56.650Z,97545.00
2023-01-03T20:05:35.458Z,97544.19
2023-01-03T20:08:12.165Z,97541.94
2023-01-03T20:10:41.939Z,97542.34
2023-01-03T20:13:19.276Z,97539.91
2023-01-03T20:15:48.313Z,97538.66
2023-01-03T20:18:27.473Z,97533.66
2023-01-03T20:21:26.746Z,97532.22
2023-01-03T20:23:59.899Z,97528.81
2023-01-03T20:26:32.237Z,97528.81
2023-01-03T20:29:00.140Z,97536.63
2023-01-03T20:31:27.565Z,97529.78
2023-01-03T20:33:54.648Z,97533.38
2023-01-03T20:36:25.835Z,97535.00
2023-01-03T20:38:56.238Z,97528.97
2023-01-03T20:41:36.700Z,97526.56
2023-01-03T20:44:07.498Z,97529.38
2023-01-03T20:46:35.090Z,97527.75
2023-01-03T20:49:03.691Z,97539.34
2023-01-03T20:51:30.804Z,97537.09
2023-01-03T20:53:57.867Z,97538.13
2023-01-03T20:56:26.651Z,97541.09
2023-01-03T20:58:53.803Z,97538.47
2023-01-03T21:01:20.928Z,97535.88
2023-01-03T21:03:48.273Z,97532.22
2023-01-03T21:06:29.788Z,97533.09
2023-01-03T21:08:58.189Z,97531.28
2023-01-03T21:11:34.017Z,97532.53
2023-01-03T21:14:01.633Z,97520.75
2023-01-03T21:16:31.524Z,97523.75
2023-01-03T21:19:11.000Z,97530.78
2023-01-03T21:21:38.686Z,97532.56
2023-01-03T21:24:07.049Z,97526.75
2023-01-03T21:26:34.285Z,97531.53
2023-01-03T21:29:01.318Z,97530.91
2023-01-03T21:31:28.829Z,97530.47
2023-01-03T21:33:56.639Z,97539.28
2023-01-03T21:36:27.072Z,97540.28
2023-01-03T21:38:54.539Z,97543.06
2023-01-03T21:41:33.146Z,97546.66
2023-01-03T21:44:03.485Z,97555.50
2023-01-03T21:46:31.148Z,97554.47
2023-01-03T21:48:58.377Z,97556.91
2023-01-03T21:51:41.124Z,97563.75
2023-01-03T21:54:08.926Z,97556.72
2023-01-03T21:56:46.119Z,97561.75
2023-01-03T21:59:15.471Z,97559.16
2023-01-03T22:02:03.182Z,97565.19
2023-01-03T22:04:30.800Z,97556.38
2023-01-03T22:07:01.444Z,97561.56
2023-01-03T22:09:48.436Z,97559.56
2023-01-03T22:12:16.453Z,97575.22
2023-01-03T22:14:47.553Z,97575.22
2023-01-03T22:17:15.702Z,97572.59
2023-01-03T22:19:42.597Z,97569.00
2023-01-03T22:22:09.658Z,97574.41
2023-01-03T22:24:36.761Z,97574.63
2023-01-03T22:27:03.922Z,97566.78
2023-01-03T22:29:30.976Z,97566.16
2023-01-03T22:31:58.246Z,97566.97
2023-01-03T22:34:25.344Z,97563.56
2023-01-03T22:36:52.442Z,97562.94
2023-01-03T22:39:19.454Z,97551.69
2023-01-03T22:41:46.448Z,97550.28
2023-01-03T22:44:13.481Z,97551.28
2023-01-03T22:46:40.684Z,97547.41
2023-01-03T22:49:07.731Z,97555.41
2023-01-03T22:51:34.749Z,97556.78
2023-01-03T22:54:01.933Z,97557.34
2023-01-03T22:56:28.978Z,97569.50
2023-01-03T22:58:56.070Z,97561.22
2023-01-03T23:01:28.203Z,97559.78
2023-01-03T23:04:01.477Z,97564.69
2023-01-03T23:06:30.446Z,97560.47
2023-01-03T23:08:58.109Z,97564.06
2023-01-03T23:11:45.927Z,97566.06
2023-01-03T23:14:18.779Z,97566.06
2023-01-03T23:16:47.130Z,97561.84
2023-01-03T23:19:16.398Z,97570.66
2023-01-03T23:21:45.665Z,97564.81
2023-01-03T23:24:15.181Z,97562.59
2023-01-03T23:26:42.723Z,97564.19
2023-01-03T23:29:10.899Z,97560.34
2023-01-03T23:31:38.186Z,97559.16
2023-01-03T23:34:05.180Z,97558.63
2023-01-03T23:36:32.179Z,97551.63
2023-01-03T23:38:59.218Z,97550.00
2023-01-03T23:41:26.560Z,97549.38
2023-01-03T23:43:53.786Z,97549.13
2023-01-03T23:46:23.322Z,97551.31
2023-01-03T23:48:58.142Z,97553.09
2023-01-03T23:51:26.405Z,97550.66
2023-01-03T23:53:54.047Z,97558.00
2023-01-03T23:56:23.492Z,97547.97
2023-01-03T23:58:52.154Z,97547.81
